createdAt,value
2019-05-03T00:02:05.293Z,8.43
2019-05-03T00:04:39.080Z,8.37
2019-05-03T00:07:09.389Z,7.60
2019-05-03T00:09:42.624Z,10.90
2019-05-03T00:12:13.513Z,13.50
2019-05-03T00:14:45.718Z,9.57
2019-05-03T00:17:16.656Z,10.17
2019-05-03T00:19:46.960Z,9.17
2019-05-03T00:22:17.245Z,9.80
2019-05-03T00:25:02.240Z,8.50
2019-05-03T00:27:21.808Z,10.77
2019-05-03T00:29:54.408Z,8.20
2019-05-03T00:32:26.784Z,5.97
2019-05-03T00:34:58.990Z,8.27
2019-05-03T00:37:32.696Z,13.20
2019-05-03T00:40:07.594Z,7.93
2019-05-03T00:42:37.873Z,9.70
2019-05-03T00:45:10.143Z,8.57
2019-05-03T00:47:42.067Z,8.17
2019-05-03T00:50:12.368Z,8.90
2019-05-03T00:52:44.094Z,12.10
2019-05-03T00:55:19.274Z,9.37
2019-05-03T00:57:52.011Z,11.33
2019-05-03T01:00:22.175Z,7.37
2019-05-03T01:02:52.649Z,10.40
2019-05-03T01:05:26.130Z,11.50
2019-05-03T01:07:56.388Z,9.20
2019-05-03T01:10:26.850Z,11.13
2019-05-03T01:12:57.712Z,11.33
2019-05-03T01:15:59.031Z,10.43
2019-05-03T01:18:32.553Z,10.83
2019-05-03T01:21:04.175Z,11.83
2019-05-03T01:23:34.914Z,10.63
2019-05-03T01:26:05.307Z,9.37
2019-05-03T01:28:35.562Z,7.30
2019-05-03T01:31:06.080Z,10.67
2019-05-03T01:33:36.850Z,12.03
2019-05-03T01:36:07.734Z,10.33
2019-05-03T01:38:37.885Z,10.40
2019-05-03T01:41:08.518Z,11.17
2019-05-03T01:43:38.905Z,8.77
2019-05-03T01:46:09.078Z,17.10
2019-05-03T01:48:55.353Z,8.30
2019-05-03T01:51:43.105Z,11.17
2019-05-03T01:54:13.698Z,12.60
2019-05-03T01:56:56.098Z,8.57
2019-05-03T01:59:15.999Z,8.33
2019-05-03T02:01:54.048Z,11.60
2019-05-03T02:04:49.132Z,8.43
2019-05-03T02:07:19.952Z,7.80
2019-05-03T02:09:53.419Z,10.00
2019-05-03T02:12:23.879Z,13.03
2019-05-03T02:14:54.680Z,11.40
2019-05-03T02:17:25.541Z,10.50
2019-05-03T02:19:56.465Z,8.70
2019-05-03T02:22:27.299Z,11.73
2019-05-03T02:25:01.742Z,8.40
2019-05-03T02:27:32.642Z,11.23
2019-05-03T02:30:03.609Z,6.20
2019-05-03T02:32:33.908Z,11.63
2019-05-03T02:35:04.303Z,11.77
2019-05-03T02:37:38.152Z,9.33
2019-05-03T02:40:08.543Z,9.60
2019-05-03T02:42:39.726Z,10.23
2019-05-03T02:45:15.524Z,10.10
2019-05-03T02:47:55.427Z,12.40
2019-05-03T02:50:26.026Z,10.17
2019-05-03T02:52:56.335Z,11.40
2019-05-03T02:55:27.123Z,7.90
2019-05-03T02:57:57.477Z,11.07
2019-05-03T03:01:08.733Z,9.87
2019-05-03T03:03:40.445Z,8.73
2019-05-03T03:06:10.916Z,11.67
2019-05-03T03:08:45.415Z,9.43
2019-05-03T03:11:18.104Z,12.03
2019-05-03T03:13:48.812Z,14.17
2019-05-03T03:16:21.278Z,14.00
2019-05-03T03:19:18.795Z,11.40
2019-05-03T03:22:01.658Z,13.33
2019-05-03T03:24:28.645Z,11.53
2019-05-03T03:27:05.155Z,11.47
2019-05-03T03:29:35.926Z,9.33
2019-05-03T03:32:21.573Z,10.47
2019-05-03T03:35:03.359Z,8.30
2019-05-03T03:37:35.024Z,9.73
2019-05-03T03:40:06.006Z,10.67
2019-05-03T03:42:38.311Z,5.13
2019-05-03T03:45:09.580Z,6.20
2019-05-03T03:47:40.572Z,8.70
2019-05-03T03:50:10.783Z,5.77
2019-05-03T03:52:45.032Z,11.93
2019-05-03T03:55:16.135Z,10.20
2019-05-03T03:57:47.505Z,11.77
2019-05-03T04:00:21.258Z,9.63
2019-05-03T04:02:51.954Z,9.03
2019-05-03T04:05:24.870Z,12.23
2019-05-03T04:07:56.189Z,10.80
2019-05-03T04:10:27.184Z,12.57
2019-05-03T04:13:06.191Z,7.33
2019-05-03T04:16:05.374Z,8.97
2019-05-03T04:18:56.889Z,8.87
2019-05-03T04:21:29.167Z,7.83
2019-05-03T04:23:59.632Z,9.50
2019-05-03T04:26:39.248Z,9.20
2019-05-03T04:29:10.837Z,7.57
2019-05-03T04:31:41.406Z,10.80
2019-05-03T04:34:11.758Z,7.43
2019-05-03T04:36:41.978Z,7.93
2019-05-03T04:39:17.047Z,8.53
2019-05-03T04:41:45.330Z,6.73
2019-05-03T04:44:15.803Z,6.50
2019-05-03T04:46:56.058Z,8.03
2019-05-03T04:49:28.414Z,8.87
2019-05-03T04:51:58.651Z,7.93
2019-05-03T04:54:45.203Z,11.13
2019-05-03T04:57:26.589Z,10.70
2019-05-03T04:59:49.012Z,9.80
2019-05-03T05:02:19.587Z,8.83
2019-05-03T05:04:50.047Z,13.10
2019-05-03T05:07:20.362Z,13.27
2019-05-03T05:09:50.460Z,11.23
2019-05-03T05:12:27.791Z,10.93
2019-05-03T05:14:57.919Z,11.17
2019-05-03T05:17:38.850Z,9.23
2019-05-03T05:20:19.418Z,11.10
2019-05-03T05:22:49.812Z,10.20
2019-05-03T05:25:25.009Z,8.10
2019-05-03T05:28:16.800Z,10.13
2019-05-03T05:30:51.599Z,7.13
2019-05-03T05:33:21.870Z,8.20
2019-05-03T05:35:54.527Z,8.23
2019-05-03T05:38:25.563Z,6.33
2019-05-03T05:40:58.348Z,8.17
2019-05-03T05:43:28.810Z,11.43
2019-05-03T05:45:59.047Z,5.53
2019-05-03T05:48:38.125Z,8.47
2019-05-03T05:51:08.346Z,9.90
2019-05-03T05:53:41.743Z,8.27
2019-05-03T05:56:37.274Z,10.90
2019-05-03T05:59:29.913Z,8.27
2019-05-03T06:02:08.831Z,7.30
2019-05-03T06:04:39.283Z,9.27
2019-05-03T06:07:35.135Z,8.43
2019-05-03T06:10:28.823Z,7.37
2019-05-03T06:13:20.585Z,7.83
2019-05-03T06:16:11.798Z,7.13
2019-05-03T06:19:18.984Z,7.20
2019-05-03T06:22:00.990Z,5.37
2019-05-03T06:24:35.925Z,12.23
2019-05-03T06:27:18.863Z,7.63
2019-05-03T06:29:50.628Z,9.70
2019-05-03T06:32:28.581Z,8.13
2019-05-03T06:35:06.390Z,7.87
2019-05-03T06:37:45.920Z,10.63
2019-05-03T06:40:16.533Z,8.40
2019-05-03T06:42:54.091Z,7.33
2019-05-03T06:45:24.975Z,6.70
2019-05-03T06:48:05.424Z,9.17
2019-05-03T06:50:35.446Z,9.63
2019-05-03T06:53:12.762Z,8.17
2019-05-03T06:55:45.491Z,8.43
2019-05-03T06:58:12.748Z,10.43
2019-05-03T07:01:11.129Z,8.47
2019-05-03T07:03:49.085Z,7.17
2019-05-03T07:06:41.824Z,5.80
2019-05-03T07:09:19.998Z,7.73
2019-05-03T07:11:52.033Z,8.03
2019-05-03T07:14:24.671Z,8.37
2019-05-03T07:16:55.379Z,8.40
2019-05-03T07:19:25.963Z,6.30
2019-05-03T07:22:00.735Z,6.97
2019-05-03T07:24:40.416Z,9.63
2019-05-03T07:27:08.659Z,7.73
2019-05-03T07:29:41.352Z,3.67
2019-05-03T07:32:21.116Z,4.17
2019-05-03T07:34:55.600Z,7.97
2019-05-03T07:37:26.365Z,6.73
2019-05-03T07:39:56.806Z,4.10
2019-05-03T07:42:27.029Z,6.43
2019-05-03T07:45:01.459Z,9.67
2019-05-03T07:47:31.914Z,6.13
2019-05-03T07:50:11.257Z,7.10
2019-05-03T07:52:41.249Z,7.33
2019-05-03T07:55:17.989Z,5.90
2019-05-03T07:57:57.189Z,5.90
2019-05-03T08:00:28.441Z,7.90
2019-05-03T08:03:04.997Z,9.10
2019-05-03T08:05:34.992Z,7.17
2019-05-03T08:08:06.442Z,4.43
2019-05-03T08:10:39.533Z,6.07
2019-05-03T08:13:21.622Z,7.07
2019-05-03T08:15:56.574Z,4.23
2019-05-03T08:18:35.549Z,4.47
2019-05-03T08:21:14.895Z,7.40
2019-05-03T08:23:45.948Z,5.97
2019-05-03T08:26:22.094Z,6.93
2019-05-03T08:28:54.351Z,7.70
2019-05-03T08:31:49.790Z,4.47
2019-05-03T08:34:55.581Z,6.57
2019-05-03T08:37:34.793Z,9.60
2019-05-03T08:40:05.352Z,6.23
2019-05-03T08:42:36.158Z,3.50
2019-05-03T08:45:08.094Z,7.40
2019-05-03T08:47:38.924Z,6.57
2019-05-03T08:50:09.358Z,5.30
2019-05-03T08:52:39.803Z,5.90
2019-05-03T08:55:10.450Z,5.87
2019-05-03T08:57:44.951Z,4.40
2019-05-03T09:00:18.090Z,5.07
2019-05-03T09:02:54.910Z,6.40
2019-05-03T09:05:28.676Z,3.47
2019-05-03T09:08:00.527Z,7.27
2019-05-03T09:10:45.768Z,5.50
2019-05-03T09:13:17.501Z,5.47
2019-05-03T09:15:48.639Z,5.80
2019-05-03T09:18:20.091Z,3.70
2019-05-03T09:20:50.375Z,3.97
2019-05-03T09:23:23.402Z,5.83
2019-05-03T09:25:54.739Z,6.63
2019-05-03T09:28:31.231Z,1.97
2019-05-03T09:31:04.671Z,5.10
2019-05-03T09:33:42.423Z,4.90
2019-05-03T09:36:14.708Z,5.23
2019-05-03T09:38:46.473Z,4.20
2019-05-03T09:41:17.253Z,2.77
2019-05-03T09:43:50.729Z,2.87
2019-05-03T09:46:26.305Z,5.23
2019-05-03T09:49:09.378Z,2.60
2019-05-03T09:51:28.239Z,6.63
2019-05-03T09:54:05.392Z,3.47
2019-05-03T09:56:55.943Z,4.33
2019-05-03T09:59:30.860Z,6.03
2019-05-03T10:02:04.734Z,6.90
2019-05-03T10:04:36.643Z,4.03
2019-05-03T10:07:07.203Z,4.30
2019-05-03T10:09:38.061Z,4.93
2019-05-03T10:12:12.429Z,4.70
2019-05-03T10:14:45.245Z,5.10
2019-05-03T10:17:35.670Z,4.07
2019-05-03T10:20:08.330Z,4.40
2019-05-03T10:22:38.854Z,8.00
2019-05-03T10:25:13.897Z,3.67
2019-05-03T10:27:46.234Z,3.63
2019-05-03T10:30:27.369Z,5.53
2019-05-03T10:33:17.460Z,5.50
2019-05-03T10:35:48.061Z,4.60
2019-05-03T10:38:18.648Z,5.33
2019-05-03T10:40:49.015Z,3.97
2019-05-03T10:43:19.537Z,5.07
2019-05-03T10:45:49.745Z,4.33
2019-05-03T10:48:20.116Z,4.30
2019-05-03T10:50:52.540Z,2.90
2019-05-03T10:53:37.437Z,3.70
2019-05-03T10:56:26.897Z,4.20
2019-05-03T10:59:03.193Z,4.57
2019-05-03T11:01:54.498Z,5.17
2019-05-03T11:04:26.369Z,2.57
2019-05-03T11:06:56.753Z,4.20
2019-05-03T11:09:30.014Z,3.73
2019-05-03T11:12:05.328Z,3.83
2019-05-03T11:14:36.056Z,7.40
2019-05-03T11:17:06.792Z,3.60
2019-05-03T11:19:40.239Z,3.93
2019-05-03T11:22:11.537Z,4.33
2019-05-03T11:24:42.179Z,4.37
2019-05-03T11:27:18.278Z,4.03
2019-05-03T11:29:48.866Z,4.17
2019-05-03T11:32:55.623Z,5.63
2019-05-03T11:35:35.190Z,6.67
2019-05-03T11:38:15.147Z,4.03
2019-05-03T11:40:45.594Z,4.77
2019-05-03T11:43:18.805Z,6.00
2019-05-03T11:45:51.119Z,7.60
2019-05-03T11:48:34.888Z,5.67
2019-05-03T11:51:15.077Z,4.27
2019-05-03T11:53:47.875Z,3.77
2019-05-03T11:56:20.509Z,4.87
2019-05-03T11:58:58.444Z,6.83
2019-05-03T12:01:41.792Z,7.07
2019-05-03T12:04:12.499Z,4.67
2019-05-03T12:06:45.471Z,4.73
2019-05-03T12:09:15.742Z,4.17
2019-05-03T12:11:46.476Z,9.07
2019-05-03T12:14:21.264Z,3.23
2019-05-03T12:17:17.184Z,3.80
2019-05-03T12:19:41.195Z,4.20
2019-05-03T12:22:16.505Z,3.23
2019-05-03T12:24:51.648Z,3.93
2019-05-03T12:27:31.610Z,4.30
2019-05-03T12:30:10.161Z,2.57
2019-05-03T12:32:43.578Z,5.83
2019-05-03T12:35:15.380Z,5.40
2019-05-03T12:37:55.528Z,4.77
2019-05-03T12:40:26.848Z,3.57
2019-05-03T12:43:05.784Z,5.33
2019-05-03T12:45:37.623Z,3.03
2019-05-03T12:48:09.454Z,4.60
2019-05-03T12:50:40.160Z,4.43
2019-05-03T12:53:10.734Z,3.53
2019-05-03T12:55:44.431Z,5.17
2019-05-03T12:58:18.229Z,5.30
2019-05-03T13:01:04.922Z,4.37
2019-05-03T13:04:01.141Z,4.20
2019-05-03T13:06:37.122Z,3.93
2019-05-03T13:09:10.509Z,4.30
2019-05-03T13:11:59.185Z,7.00
2019-05-03T13:14:37.425Z,6.90
2019-05-03T13:17:12.549Z,5.27
2019-05-03T13:19:49.727Z,7.20
2019-05-03T13:22:25.331Z,5.67
2019-05-03T13:25:01.914Z,6.53
2019-05-03T13:27:34.816Z,8.33
2019-05-03T13:30:10.004Z,7.00
2019-05-03T13:32:41.564Z,3.53
2019-05-03T13:35:12.139Z,3.50
2019-05-03T13:37:45.084Z,3.80
2019-05-03T13:40:18.436Z,4.37
2019-05-03T13:42:57.127Z,6.67
2019-05-03T13:45:21.814Z,4.80
2019-05-03T13:47:55.994Z,5.13
2019-05-03T13:50:27.382Z,2.83
2019-05-03T13:52:58.158Z,2.83
2019-05-03T13:55:31.226Z,3.57
2019-05-03T13:58:01.939Z,3.07
2019-05-03T14:00:34.450Z,8.40
2019-05-03T14:03:23.168Z,4.00
2019-05-03T14:05:55.167Z,3.40
2019-05-03T14:08:25.869Z,4.87
2019-05-03T14:11:00.575Z,7.03
2019-05-03T14:13:35.434Z,3.83
2019-05-03T14:16:06.918Z,5.33
2019-05-03T14:18:45.993Z,5.43
2019-05-03T14:21:37.752Z,5.40
2019-05-03T14:24:17.447Z,5.20
2019-05-03T14:26:50.285Z,4.23
2019-05-03T14:29:21.327Z,7.33
2019-05-03T14:31:52.080Z,4.63
2019-05-03T14:34:28.990Z,3.73
2019-05-03T14:37:00.613Z,4.97
2019-05-03T14:39:31.632Z,7.27
2019-05-03T14:42:08.728Z,3.80
2019-05-03T14:44:41.471Z,5.37
2019-05-03T14:47:12.440Z,7.33
2019-05-03T14:49:44.685Z,5.53
2019-05-03T14:52:22.175Z,8.17
2019-05-03T14:55:01.925Z,6.17
2019-05-03T14:57:38.244Z,5.00
2019-05-03T15:00:25.070Z,4.00
2019-05-03T15:03:10.392Z,5.93
2019-05-03T15:05:41.511Z,4.63
2019-05-03T15:08:14.972Z,10.13
2019-05-03T15:10:47.283Z,5.17
2019-05-03T15:13:17.505Z,4.60
2019-05-03T15:15:48.095Z,5.37
2019-05-03T15:18:21.124Z,4.83
2019-05-03T15:20:59.340Z,5.30
2019-05-03T15:23:29.847Z,8.33
2019-05-03T15:26:00.301Z,4.43
2019-05-03T15:28:31.587Z,5.97
2019-05-03T15:31:05.617Z,7.20
2019-05-03T15:33:39.118Z,7.27
2019-05-03T15:36:10.639Z,7.37
2019-05-03T15:38:44.628Z,6.13
2019-05-03T15:41:19.287Z,5.03
2019-05-03T15:43:59.406Z,7.63
2019-05-03T15:46:37.934Z,5.47
2019-05-03T15:49:11.518Z,9.73
2019-05-03T15:51:44.470Z,6.70
2019-05-03T15:54:15.372Z,7.57
2019-05-03T15:56:46.599Z,6.10
2019-05-03T15:59:21.494Z,6.50
2019-05-03T16:01:51.881Z,8.77
2019-05-03T16:04:25.566Z,5.77
2019-05-03T16:07:04.900Z,10.10
2019-05-03T16:09:36.486Z,7.40
2019-05-03T16:12:14.409Z,11.00
2019-05-03T16:14:47.026Z,13.20
2019-05-03T16:17:27.676Z,19.67
2019-05-03T16:20:00.116Z,12.63
2019-05-03T16:22:30.920Z,20.13
2019-05-03T16:25:14.255Z,13.10
2019-05-03T16:27:59.503Z,12.23
2019-05-03T16:30:45.440Z,19.03
2019-05-03T16:33:27.284Z,10.63
2019-05-03T16:35:58.697Z,14.53
2019-05-03T16:38:35.423Z,6.80
2019-05-03T16:41:06.544Z,9.97
2019-05-03T16:43:45.383Z,6.80
2019-05-03T16:46:16.045Z,6.73
2019-05-03T16:48:46.788Z,6.27
2019-05-03T16:51:17.796Z,7.80
2019-05-03T16:53:48.923Z,5.20
2019-05-03T16:56:25.710Z,6.60
2019-05-03T16:58:57.199Z,5.40
2019-05-03T17:01:35.169Z,5.97
2019-05-03T17:04:25.147Z,5.23
2019-05-03T17:07:19.610Z,6.63
2019-05-03T17:09:57.427Z,5.77
2019-05-03T17:12:31.509Z,7.30
2019-05-03T17:15:05.084Z,6.03
2019-05-03T17:17:35.834Z,12.40
2019-05-03T17:20:08.543Z,4.43
2019-05-03T17:22:45.021Z,7.63
2019-05-03T17:25:15.771Z,6.73
2019-05-03T17:27:47.217Z,7.33
2019-05-03T17:30:21.906Z,9.90
2019-05-03T17:32:52.476Z,5.87
2019-05-03T17:35:25.019Z,5.50
2019-05-03T17:37:59.375Z,9.07
2019-05-03T17:40:44.236Z,7.53
2019-05-03T17:43:23.240Z,5.30
2019-05-03T17:45:56.704Z,8.70
2019-05-03T17:48:30.826Z,10.20
2019-05-03T17:51:01.987Z,16.67
2019-05-03T17:53:49.948Z,38.90
2019-05-03T17:56:27.944Z,28.23
2019-05-03T17:59:26.839Z,29.67
2019-05-03T18:03:00.032Z,12.03
2019-05-03T18:05:44.826Z,8.57
2019-05-03T18:08:31.147Z,11.90
2019-05-03T18:11:21.520Z,14.63
2019-05-03T18:14:09.016Z,31.73
2019-05-03T18:16:44.205Z,7.03
2019-05-03T18:19:31.060Z,10.43
2019-05-03T18:22:02.247Z,32.97
2019-05-03T18:24:39.751Z,16.67
2019-05-03T18:27:12.595Z,7.90
2019-05-03T18:29:47.941Z,17.00
2019-05-03T18:32:21.321Z,13.60
2019-05-03T18:34:54.446Z,14.57
2019-05-03T18:37:30.526Z,8.53
2019-05-03T18:40:04.966Z,9.10
2019-05-03T18:42:44.750Z,10.37
2019-05-03T18:45:34.748Z,10.43
2019-05-03T18:48:08.980Z,16.17
2019-05-03T18:50:52.104Z,8.60
2019-05-03T18:53:18.577Z,8.40
2019-05-03T18:55:49.523Z,8.47
2019-05-03T18:58:24.599Z,8.20
2019-05-03T19:00:55.160Z,7.03
2019-05-03T19:03:32.263Z,7.13
2019-05-03T19:06:05.399Z,8.03
2019-05-03T19:08:56.623Z,7.27
2019-05-03T19:11:38.807Z,6.47
2019-05-03T19:14:10.321Z,7.60
2019-05-03T19:16:54.451Z,10.57
2019-05-03T19:19:29.472Z,6.57
2019-05-03T19:22:00.170Z,8.03
2019-05-03T19:24:44.378Z,10.13
2019-05-03T19:27:17.850Z,9.27
2019-05-03T19:29:46.764Z,12.13
2019-05-03T19:32:27.840Z,8.10
2019-05-03T19:35:00.427Z,6.70
2019-05-03T19:37:38.510Z,10.10
2019-05-03T19:40:10.604Z,7.47
2019-05-03T19:42:47.487Z,14.57
2019-05-03T19:45:18.891Z,14.73
2019-05-03T19:47:50.025Z,8.97
2019-05-03T19:50:22.150Z,10.00
2019-05-03T19:53:33.384Z,18.23
2019-05-03T19:56:06.867Z,31.80
2019-05-03T19:58:37.314Z,12.63
2019-05-03T20:01:34.339Z,23.87
2019-05-03T20:04:24.625Z,12.77
2019-05-03T20:07:01.372Z,10.53
2019-05-03T20:09:35.022Z,8.37
2019-05-03T20:12:08.987Z,12.33
2019-05-03T20:14:40.482Z,9.53
2019-05-03T20:17:14.818Z,26.03
2019-05-03T20:19:45.658Z,15.13
2019-05-03T20:22:18.874Z,14.50
2019-05-03T20:24:51.147Z,11.60
2019-05-03T20:27:25.104Z,9.40
2019-05-03T20:29:56.539Z,16.87
2019-05-03T20:32:29.721Z,9.87
2019-05-03T20:35:13.109Z,14.67
2019-05-03T20:37:34.751Z,8.77
2019-05-03T20:40:07.268Z,8.77
2019-05-03T20:43:00.214Z,13.37
2019-05-03T20:45:58.156Z,18.13
2019-05-03T20:48:30.977Z,7.30
2019-05-03T20:51:02.150Z,27.57
2019-05-03T20:53:49.996Z,12.23
2019-05-03T20:56:21.889Z,8.37
2019-05-03T20:59:16.914Z,13.93
2019-05-03T21:01:54.604Z,19.07
2019-05-03T21:04:32.116Z,33.73
2019-05-03T21:07:04.717Z,12.90
2019-05-03T21:09:38.616Z,16.37
2019-05-03T21:12:09.270Z,22.50
2019-05-03T21:14:40.016Z,10.60
2019-05-03T21:17:38.540Z,10.03
2019-05-03T21:20:14.762Z,20.03
2019-05-03T21:22:48.232Z,14.70
2019-05-03T21:26:02.616Z,14.90
2019-05-03T21:28:13.841Z,43.27
2019-05-03T21:30:48.980Z,18.57
2019-05-03T21:33:19.533Z,16.53
2019-05-03T21:35:55.721Z,12.93
2019-05-03T21:38:26.642Z,17.87
2019-05-03T21:40:57.406Z,17.93
2019-05-03T21:43:28.301Z,19.93
2019-05-03T21:46:20.745Z,18.33
2019-05-03T21:49:11.811Z,14.17
2019-05-03T21:51:42.521Z,13.20
2019-05-03T21:54:14.812Z,15.37
2019-05-03T21:56:45.588Z,13.43
2019-05-03T21:59:16.815Z,12.97
2019-05-03T22:01:49.081Z,15.93
2019-05-03T22:04:21.764Z,19.00
2019-05-03T22:07:00.059Z,11.43
2019-05-03T22:09:34.847Z,12.23
2019-05-03T22:12:07.472Z,15.80
2019-05-03T22:14:45.498Z,13.50
2019-05-03T22:17:41.721Z,11.30
2019-05-03T22:20:29.230Z,11.17
2019-05-03T22:23:08.790Z,17.83
2019-05-03T22:25:40.330Z,18.37
2019-05-03T22:28:19.771Z,12.20
2019-05-03T22:30:51.679Z,16.03
2019-05-03T22:33:22.450Z,16.10
2019-05-03T22:36:07.568Z,15.47
2019-05-03T22:38:27.625Z,13.50
2019-05-03T22:40:58.952Z,14.43
2019-05-03T22:43:29.733Z,11.70
2019-05-03T22:46:00.154Z,21.77
2019-05-03T22:48:30.803Z,17.20
2019-05-03T22:51:01.053Z,19.87
2019-05-03T22:53:31.393Z,19.23
2019-05-03T22:56:02.033Z,15.53
2019-05-03T22:58:32.757Z,18.27
2019-05-03T23:01:04.845Z,17.20
2019-05-03T23:03:44.918Z,10.93
2019-05-03T23:06:22.160Z,8.47
2019-05-03T23:08:47.293Z,4.37
2019-05-03T23:11:17.782Z,3.77
2019-05-03T23:14:04.596Z,6.07
2019-05-03T23:16:36.831Z,3.17
2019-05-03T23:19:07.201Z,3.27
2019-05-03T23:21:54.451Z,2.97
2019-05-03T23:24:24.930Z,3.20
2019-05-03T23:26:55.424Z,3.40
2019-05-03T23:29:30.094Z,3.37
2019-05-03T23:32:04.704Z,4.50
2019-05-03T23:34:35.340Z,4.20
2019-05-03T23:37:16.845Z,4.70
2019-05-03T23:39:47.189Z,2.73
2019-05-03T23:42:17.603Z,5.37
2019-05-03T23:44:48.434Z,4.00
2019-05-03T23:47:31.555Z,4.27
2019-05-03T23:50:01.934Z,3.40
2019-05-03T23:52:36.399Z,5.73
2019-05-03T23:55:20.040Z,3.77
2019-05-03T23:57:55.267Z,3.10
